sensor_id;sensor_type;location;lat;lon;timestamp;P1;durP1;ratioP1;P2;durP2;ratioP2
44120;SDS011;29783;52.504;13.478;2023-08-20T00:01:39;20.77;;;13.00;;
44120;SDS011;29783;52.504;13.478;2023-08-20T00:04:05;16.63;;;11.55;;
44120;SDS011;29783;52.504;13.478;2023-08-20T00:06:31;18.63;;;12.15;;
44120;SDS011;29783;52.504;13.478;2023-08-20T00:08:57;17.52;;;11.50;;
44120;SDS011;29783;52.504;13.478;2023-08-20T00:11:22;16.90;;;11.90;;
44120;SDS011;29783;52.504;13.478;2023-08-20T00:13:48;16.60;;;12.02;;
44120;SDS011;29783;52.504;13.478;2023-08-20T00:16:14;15.48;;;12.02;;
44120;SDS011;29783;52.504;13.478;2023-08-20T00:18:40;15.90;;;12.15;;
44120;SDS011;29783;52.504;13.478;2023-08-20T00:21:06;16.77;;;12.55;;
44120;SDS011;29783;52.504;13.478;2023-08-20T00:23:32;14.27;;;12.77;;
44120;SDS011;29783;52.504;13.478;2023-08-20T00:25:59;17.58;;;13.05;;
44120;SDS011;29783;52.504;13.478;2023-08-20T00:28:25;14.73;;;13.23;;
44120;SDS011;29783;52.504;13.478;2023-08-20T00:30:51;16.58;;;12.38;;
44120;SDS011;29783;52.504;13.478;2023-08-20T00:33:16;14.23;;;12.50;;
44120;SDS011;29783;52.504;13.478;2023-08-20T00:35:42;16.80;;;12.48;;
44120;SDS011;29783;52.504;13.478;2023-08-20T00:38:08;18.70;;;11.95;;
44120;SDS011;29783;52.504;13.478;2023-08-20T00:40:33;28.05;;;11.48;;
44120;SDS011;29783;52.504;13.478;2023-08-20T00:42:59;14.18;;;11.90;;
44120;SDS011;29783;52.504;13.478;2023-08-20T00:45:24;13.82;;;12.07;;
44120;SDS011;29783;52.504;13.478;2023-08-20T00:47:50;16.88;;;12.50;;
44120;SDS011;29783;52.504;13.478;2023-08-20T00:50:16;14.93;;;12.35;;
44120;SDS011;29783;52.504;13.478;2023-08-20T00:52:43;16.50;;;11.48;;
44120;SDS011;29783;52.504;13.478;2023-08-20T00:55:10;18.60;;;10.82;;
44120;SDS011;29783;52.504;13.478;2023-08-20T00:57:38;15.30;;;12.20;;
44120;SDS011;29783;52.504;13.478;2023-08-20T01:00:04;16.27;;;11.45;;
44120;SDS011;29783;52.504;13.478;2023-08-20T01:02:34;19.92;;;12.27;;
44120;SDS011;29783;52.504;13.478;2023-08-20T01:05:00;20.98;;;12.13;;
44120;SDS011;29783;52.504;13.478;2023-08-20T01:07:36;20.10;;;11.30;;
44120;SDS011;29783;52.504;13.478;2023-08-20T01:12:48;12.93;;;11.65;;
44120;SDS011;29783;52.504;13.478;2023-08-20T01:15:15;14.70;;;12.05;;
44120;SDS011;29783;52.504;13.478;2023-08-20T01:17:41;18.95;;;12.43;;
44120;SDS011;29783;52.504;13.478;2023-08-20T01:20:08;14.57;;;11.02;;
44120;SDS011;29783;52.504;13.478;2023-08-20T01:28:18;11.23;;;9.90;;
44120;SDS011;29783;52.504;13.478;2023-08-20T01:30:44;13.48;;;9.85;;
44120;SDS011;29783;52.504;13.478;2023-08-20T01:33:10;11.38;;;9.85;;
44120;SDS011;29783;52.504;13.478;2023-08-20T01:35:37;11.88;;;9.63;;
44120;SDS011;29783;52.504;13.478;2023-08-20T01:38:03;17.88;;;9.57;;
44120;SDS011;29783;52.504;13.478;2023-08-20T01:40:29;12.57;;;10.30;;
44120;SDS011;29783;52.504;13.478;2023-08-20T01:42:55;18.80;;;10.05;;
44120;SDS011;29783;52.504;13.478;2023-08-20T01:45:22;16.55;;;10.15;;
44120;SDS011;29783;52.504;13.478;2023-08-20T01:47:48;13.95;;;10.52;;
44120;SDS011;29783;52.504;13.478;2023-08-20T01:50:14;15.60;;;9.63;;
44120;SDS011;29783;52.504;13.478;2023-08-20T01:52:39;20.05;;;11.25;;
44120;SDS011;29783;52.504;13.478;2023-08-20T01:55:05;29.02;;;10.63;;
44120;SDS011;29783;52.504;13.478;2023-08-20T01:57:31;12.50;;;10.70;;
44120;SDS011;29783;52.504;13.478;2023-08-20T01:59:57;15.52;;;11.35;;
44120;SDS011;29783;52.504;13.478;2023-08-20T02:02:23;13.25;;;10.60;;
44120;SDS011;29783;52.504;13.478;2023-08-20T02:04:49;14.20;;;11.02;;
44120;SDS011;29783;52.504;13.478;2023-08-20T02:07:16;16.98;;;10.38;;
44120;SDS011;29783;52.504;13.478;2023-08-20T02:09:42;14.52;;;10.40;;
44120;SDS011;29783;52.504;13.478;2023-08-20T02:12:08;15.90;;;10.52;;
44120;SDS011;29783;52.504;13.478;2023-08-20T02:14:35;11.77;;;10.10;;
44120;SDS011;29783;52.504;13.478;2023-08-20T02:17:01;15.25;;;10.73;;
44120;SDS011;29783;52.504;13.478;2023-08-20T02:19:27;12.73;;;10.07;;
44120;SDS011;29783;52.504;13.478;2023-08-20T02:21:53;15.20;;;9.82;;
44120;SDS011;29783;52.504;13.478;2023-08-20T02:24:18;17.48;;;10.75;;
44120;SDS011;29783;52.504;13.478;2023-08-20T02:26:44;15.13;;;10.77;;
44120;SDS011;29783;52.504;13.478;2023-08-20T02:29:10;14.50;;;10.90;;
44120;SDS011;29783;52.504;13.478;2023-08-20T02:31:35;12.90;;;11.05;;
44120;SDS011;29783;52.504;13.478;2023-08-20T02:34:01;24.17;;;11.05;;
44120;SDS011;29783;52.504;13.478;2023-08-20T02:36:27;25.35;;;10.57;;
44120;SDS011;29783;52.504;13.478;2023-08-20T02:38:52;13.32;;;9.98;;
44120;SDS011;29783;52.504;13.478;2023-08-20T02:41:18;15.32;;;10.82;;
44120;SDS011;29783;52.504;13.478;2023-08-20T02:43:44;16.60;;;11.30;;
44120;SDS011;29783;52.504;13.478;2023-08-20T02:46:10;17.85;;;11.48;;
44120;SDS011;29783;52.504;13.478;2023-08-20T02:48:36;12.65;;;10.30;;
44120;SDS011;29783;52.504;13.478;2023-08-20T02:51:02;18.63;;;10.98;;
44120;SDS011;29783;52.504;13.478;2023-08-20T02:53:27;16.08;;;10.52;;
44120;SDS011;29783;52.504;13.478;2023-08-20T02:55:54;14.25;;;11.45;;
44120;SDS011;29783;52.504;13.478;2023-08-20T02:58:19;15.65;;;10.60;;
44120;SDS011;29783;52.504;13.478;2023-08-20T03:00:45;14.02;;;11.40;;
44120;SDS011;29783;52.504;13.478;2023-08-20T03:03:12;14.02;;;10.38;;
44120;SDS011;29783;52.504;13.478;2023-08-20T03:05:38;14.00;;;10.93;;
44120;SDS011;29783;52.504;13.478;2023-08-20T03:08:03;16.70;;;11.45;;
44120;SDS011;29783;52.504;13.478;2023-08-20T03:10:31;18.60;;;11.25;;
44120;SDS011;29783;52.504;13.478;2023-08-20T03:13:03;13.57;;;11.02;;
44120;SDS011;29783;52.504;13.478;2023-08-20T03:15:29;13.80;;;12.32;;
44120;SDS011;29783;52.504;13.478;2023-08-20T03:17:55;17.92;;;12.10;;
44120;SDS011;29783;52.504;13.478;2023-08-20T03:20:20;16.38;;;10.98;;
44120;SDS011;29783;52.504;13.478;2023-08-20T03:22:46;22.02;;;10.85;;
44120;SDS011;29783;52.504;13.478;2023-08-20T03:25:12;17.83;;;12.25;;
44120;SDS011;29783;52.504;13.478;2023-08-20T03:27:37;21.13;;;11.68;;
44120;SDS011;29783;52.504;13.478;2023-08-20T03:30:03;13.05;;;10.63;;
44120;SDS011;29783;52.504;13.478;2023-08-20T03:32:29;11.25;;;10.07;;
44120;SDS011;29783;52.504;13.478;2023-08-20T03:34:55;16.75;;;11.93;;
44120;SDS011;29783;52.504;13.478;2023-08-20T03:37:22;13.68;;;11.27;;
44120;SDS011;29783;52.504;13.478;2023-08-20T03:39:48;13.73;;;11.25;;
44120;SDS011;29783;52.504;13.478;2023-08-20T03:42:13;15.77;;;11.70;;
44120;SDS011;29783;52.504;13.478;2023-08-20T03:44:39;13.98;;;11.38;;
44120;SDS011;29783;52.504;13.478;2023-08-20T03:47:04;15.80;;;12.50;;
44120;SDS011;29783;52.504;13.478;2023-08-20T03:49:30;28.00;;;12.73;;
44120;SDS011;29783;52.504;13.478;2023-08-20T03:51:56;15.95;;;12.18;;
44120;SDS011;29783;52.504;13.478;2023-08-20T03:54:21;20.48;;;12.38;;
44120;SDS011;29783;52.504;13.478;2023-08-20T03:56:47;16.10;;;12.98;;
44120;SDS011;29783;52.504;13.478;2023-08-20T03:59:12;16.50;;;11.80;;
44120;SDS011;29783;52.504;13.478;2023-08-20T04:01:38;14.15;;;11.88;;
44120;SDS011;29783;52.504;13.478;2023-08-20T04:04:04;19.80;;;12.75;;
44120;SDS011;29783;52.504;13.478;2023-08-20T04:06:29;17.02;;;12.90;;
44120;SDS011;29783;52.504;13.478;2023-08-20T04:08:55;13.80;;;12.00;;
44120;SDS011;29783;52.504;13.478;2023-08-20T04:11:21;13.60;;;11.45;;
44120;SDS011;29783;52.504;13.478;2023-08-20T04:13:46;18.55;;;11.70;;
44120;SDS011;29783;52.504;13.478;2023-08-20T04:16:12;14.85;;;11.85;;
44120;SDS011;29783;52.504;13.478;2023-08-20T04:18:38;12.68;;;11.05;;
44120;SDS011;29783;52.504;13.478;2023-08-20T04:21:04;14.20;;;11.95;;
44120;SDS011;29783;52.504;13.478;2023-08-20T04:23:30;16.27;;;12.48;;
44120;SDS011;29783;52.504;13.478;2023-08-20T04:25:56;18.00;;;11.85;;
44120;SDS011;29783;52.504;13.478;2023-08-20T04:28:21;18.77;;;12.50;;
44120;SDS011;29783;52.504;13.478;2023-08-20T04:30:47;16.08;;;13.55;;
44120;SDS011;29783;52.504;13.478;2023-08-20T04:33:14;15.85;;;13.10;;
44120;SDS011;29783;52.504;13.478;2023-08-20T04:35:39;25.85;;;14.50;;
44120;SDS011;29783;52.504;13.478;2023-08-20T04:38:05;21.25;;;14.38;;
44120;SDS011;29783;52.504;13.478;2023-08-20T04:40:30;18.05;;;14.23;;
44120;SDS011;29783;52.504;13.478;2023-08-20T04:42:56;15.48;;;13.88;;
44120;SDS011;29783;52.504;13.478;2023-08-20T04:45:22;18.52;;;13.70;;
44120;SDS011;29783;52.504;13.478;2023-08-20T04:47:47;19.20;;;15.00;;
44120;SDS011;29783;52.504;13.478;2023-08-20T04:50:13;23.20;;;13.68;;
44120;SDS011;29783;52.504;13.478;2023-08-20T04:52:39;17.05;;;13.05;;
44120;SDS011;29783;52.504;13.478;2023-08-20T04:55:05;24.17;;;14.05;;
44120;SDS011;29783;52.504;13.478;2023-08-20T04:57:34;15.23;;;13.68;;
44120;SDS011;29783;52.504;13.478;2023-08-20T05:00:00;17.90;;;13.80;;
44120;SDS011;29783;52.504;13.478;2023-08-20T05:02:25;15.48;;;14.02;;
44120;SDS011;29783;52.504;13.478;2023-08-20T05:04:51;16.85;;;13.82;;
44120;SDS011;29783;52.504;13.478;2023-08-20T05:07:17;18.70;;;14.82;;
44120;SDS011;29783;52.504;13.478;2023-08-20T05:09:42;29.33;;;14.90;;
44120;SDS011;29783;52.504;13.478;2023-08-20T05:12:08;17.83;;;15.68;;
44120;SDS011;29783;52.504;13.478;2023-08-20T05:14:34;16.17;;;14.40;;
44120;SDS011;29783;52.504;13.478;2023-08-20T05:16:59;23.17;;;13.93;;
44120;SDS011;29783;52.504;13.478;2023-08-20T05:19:25;18.77;;;15.45;;
44120;SDS011;29783;52.504;13.478;2023-08-20T05:21:51;16.23;;;14.40;;
44120;SDS011;29783;52.504;13.478;2023-08-20T05:24:20;18.83;;;16.45;;
44120;SDS011;29783;52.504;13.478;2023-08-20T05:26:46;21.52;;;16.50;;
44120;SDS011;29783;52.504;13.478;2023-08-20T05:29:14;17.27;;;15.57;;
44120;SDS011;29783;52.504;13.478;2023-08-20T05:31:40;17.63;;;15.20;;
44120;SDS011;29783;52.504;13.478;2023-08-20T05:34:05;18.52;;;15.45;;
44120;SDS011;29783;52.504;13.478;2023-08-20T05:36:31;21.10;;;13.88;;
44120;SDS011;29783;52.504;13.478;2023-08-20T05:38:56;19.45;;;14.93;;
44120;SDS011;29783;52.504;13.478;2023-08-20T05:41:22;21.35;;;14.68;;
44120;SDS011;29783;52.504;13.478;2023-08-20T05:43:49;19.90;;;17.25;;
44120;SDS011;29783;52.504;13.478;2023-08-20T05:46:14;18.30;;;15.85;;
44120;SDS011;29783;52.504;13.478;2023-08-20T05:48:40;24.48;;;15.25;;
44120;SDS011;29783;52.504;13.478;2023-08-20T05:51:05;25.23;;;16.05;;
44120;SDS011;29783;52.504;13.478;2023-08-20T05:53:31;24.70;;;15.15;;
44120;SDS011;29783;52.504;13.478;2023-08-20T05:55:57;21.73;;;15.32;;
44120;SDS011;29783;52.504;13.478;2023-08-20T05:58:22;16.92;;;13.30;;
44120;SDS011;29783;52.504;13.478;2023-08-20T06:00:48;18.45;;;15.57;;
44120;SDS011;29783;52.504;13.478;2023-08-20T06:03:13;17.50;;;15.15;;
44120;SDS011;29783;52.504;13.478;2023-08-20T06:05:39;17.38;;;13.73;;
44120;SDS011;29783;52.504;13.478;2023-08-20T06:08:05;16.83;;;15.10;;
44120;SDS011;29783;52.504;13.478;2023-08-20T06:10:31;16.95;;;14.30;;
44120;SDS011;29783;52.504;13.478;2023-08-20T06:12:56;18.67;;;14.70;;
44120;SDS011;29783;52.504;13.478;2023-08-20T06:15:22;16.48;;;14.68;;
44120;SDS011;29783;52.504;13.478;2023-08-20T06:17:47;24.70;;;14.75;;
44120;SDS011;29783;52.504;13.478;2023-08-20T06:20:13;20.08;;;15.25;;
44120;SDS011;29783;52.504;13.478;2023-08-20T06:22:39;16.58;;;13.82;;
44120;SDS011;29783;52.504;13.478;2023-08-20T06:25:05;25.80;;;14.45;;
44120;SDS011;29783;52.504;13.478;2023-08-20T06:27:31;17.35;;;13.73;;
44120;SDS011;29783;52.504;13.478;2023-08-20T06:29:56;22.60;;;13.75;;
44120;SDS011;29783;52.504;13.478;2023-08-20T06:32:23;20.27;;;13.95;;
44120;SDS011;29783;52.504;13.478;2023-08-20T06:34:49;17.48;;;13.70;;
44120;SDS011;29783;52.504;13.478;2023-08-20T06:37:14;17.20;;;14.65;;
44120;SDS011;29783;52.504;13.478;2023-08-20T06:39:40;15.18;;;13.60;;
44120;SDS011;29783;52.504;13.478;2023-08-20T06:42:05;17.48;;;13.10;;
44120;SDS011;29783;52.504;13.478;2023-08-20T06:44:31;18.20;;;13.50;;
44120;SDS011;29783;52.504;13.478;2023-08-20T06:46:57;17.92;;;13.10;;
44120;SDS011;29783;52.504;13.478;2023-08-20T06:49:22;16.00;;;13.77;;
44120;SDS011;29783;52.504;13.478;2023-08-20T06:51:48;14.07;;;12.45;;
44120;SDS011;29783;52.504;13.478;2023-08-20T06:54:14;16.80;;;13.13;;
44120;SDS011;29783;52.504;13.478;2023-08-20T06:56:40;15.95;;;12.73;;
44120;SDS011;29783;52.504;13.478;2023-08-20T06:59:06;17.27;;;13.77;;
44120;SDS011;29783;52.504;13.478;2023-08-20T07:01:32;15.73;;;12.75;;
44120;SDS011;29783;52.504;13.478;2023-08-20T07:03:58;17.80;;;13.85;;
44120;SDS011;29783;52.504;13.478;2023-08-20T07:06:24;17.48;;;13.27;;
44120;SDS011;29783;52.504;13.478;2023-08-20T07:08:50;17.88;;;12.55;;
44120;SDS011;29783;52.504;13.478;2023-08-20T07:11:15;16.25;;;12.68;;
44120;SDS011;29783;52.504;13.478;2023-08-20T07:13:41;21.42;;;12.73;;
44120;SDS011;29783;52.504;13.478;2023-08-20T07:16:07;18.08;;;12.02;;
44120;SDS011;29783;52.504;13.478;2023-08-20T07:18:32;15.70;;;11.88;;
44120;SDS011;29783;52.504;13.478;2023-08-20T07:20:58;16.45;;;12.02;;
44120;SDS011;29783;52.504;13.478;2023-08-20T07:23:24;14.88;;;11.38;;
44120;SDS011;29783;52.504;13.478;2023-08-20T07:25:50;15.25;;;13.05;;
44120;SDS011;29783;52.504;13.478;2023-08-20T07:28:17;16.05;;;11.93;;
44120;SDS011;29783;52.504;13.478;2023-08-20T07:30:51;15.07;;;12.50;;
44120;SDS011;29783;52.504;13.478;2023-08-20T07:33:17;19.58;;;12.40;;
44120;SDS011;29783;52.504;13.478;2023-08-20T07:35:43;20.77;;;13.48;;
44120;SDS011;29783;52.504;13.478;2023-08-20T07:38:08;24.55;;;13.13;;
44120;SDS011;29783;52.504;13.478;2023-08-20T07:40:34;16.58;;;11.57;;
44120;SDS011;29783;52.504;13.478;2023-08-20T07:42:59;19.73;;;12.57;;
44120;SDS011;29783;52.504;13.478;2023-08-20T07:45:25;16.27;;;12.45;;
44120;SDS011;29783;52.504;13.478;2023-08-20T07:47:51;20.45;;;12.13;;
44120;SDS011;29783;52.504;13.478;2023-08-20T07:50:16;17.20;;;11.40;;
44120;SDS011;29783;52.504;13.478;2023-08-20T07:52:42;18.30;;;13.10;;
44120;SDS011;29783;52.504;13.478;2023-08-20T07:55:07;14.98;;;10.88;;
44120;SDS011;29783;52.504;13.478;2023-08-20T07:57:33;14.68;;;11.60;;
44120;SDS011;29783;52.504;13.478;2023-08-20T07:59:59;15.63;;;12.75;;
44120;SDS011;29783;52.504;13.478;2023-08-20T08:02:24;12.52;;;10.98;;
44120;SDS011;29783;52.504;13.478;2023-08-20T08:04:50;17.83;;;12.10;;
44120;SDS011;29783;52.504;13.478;2023-08-20T08:07:15;21.60;;;13.15;;
44120;SDS011;29783;52.504;13.478;2023-08-20T08:09:41;15.63;;;12.43;;
44120;SDS011;29783;52.504;13.478;2023-08-20T08:12:07;13.13;;;10.98;;
44120;SDS011;29783;52.504;13.478;2023-08-20T08:14:32;18.17;;;12.30;;
44120;SDS011;29783;52.504;13.478;2023-08-20T08:16:58;14.90;;;12.30;;
44120;SDS011;29783;52.504;13.478;2023-08-20T08:19:24;20.67;;;14.23;;
44120;SDS011;29783;52.504;13.478;2023-08-20T08:21:49;15.10;;;13.10;;
44120;SDS011;29783;52.504;13.478;2023-08-20T08:24:15;17.02;;;13.77;;
44120;SDS011;29783;52.504;13.478;2023-08-20T08:26:41;17.02;;;13.82;;
44120;SDS011;29783;52.504;13.478;2023-08-20T08:29:07;15.88;;;12.32;;
44120;SDS011;29783;52.504;13.478;2023-08-20T08:31:33;18.83;;;12.35;;
44120;SDS011;29783;52.504;13.478;2023-08-20T08:33:59;17.13;;;11.40;;
44120;SDS011;29783;52.504;13.478;2023-08-20T08:36:25;18.45;;;12.38;;
44120;SDS011;29783;52.504;13.478;2023-08-20T08:38:52;17.75;;;13.05;;
44120;SDS011;29783;52.504;13.478;2023-08-20T08:41:17;14.20;;;12.60;;
44120;SDS011;29783;52.504;13.478;2023-08-20T08:43:48;16.83;;;13.63;;
44120;SDS011;29783;52.504;13.478;2023-08-20T08:46:14;16.52;;;11.13;;
44120;SDS011;29783;52.504;13.478;2023-08-20T08:48:41;17.55;;;10.93;;
44120;SDS011;29783;52.504;13.478;2023-08-20T08:51:08;14.60;;;10.55;;
44120;SDS011;29783;52.504;13.478;2023-08-20T08:53:34;14.77;;;11.38;;
44120;SDS011;29783;52.504;13.478;2023-08-20T08:56:00;15.05;;;9.20;;
44120;SDS011;29783;52.504;13.478;2023-08-20T08:58:27;13.98;;;8.95;;
44120;SDS011;29783;52.504;13.478;2023-08-20T09:00:53;12.18;;;9.25;;
44120;SDS011;29783;52.504;13.478;2023-08-20T09:03:19;11.80;;;8.82;;
44120;SDS011;29783;52.504;13.478;2023-08-20T09:05:46;13.70;;;9.18;;
44120;SDS011;29783;52.504;13.478;2023-08-20T09:08:23;13.40;;;8.77;;
44120;SDS011;29783;52.504;13.478;2023-08-20T09:10:52;11.23;;;8.98;;
44120;SDS011;29783;52.504;13.478;2023-08-20T09:13:23;16.27;;;8.13;;
44120;SDS011;29783;52.504;13.478;2023-08-20T09:15:57;11.23;;;7.30;;
44120;SDS011;29783;52.504;13.478;2023-08-20T09:18:23;12.98;;;6.95;;
44120;SDS011;29783;52.504;13.478;2023-08-20T09:20:49;11.13;;;7.38;;
44120;SDS011;29783;52.504;13.478;2023-08-20T09:23:15;10.50;;;7.13;;
44120;SDS011;29783;52.504;13.478;2023-08-20T09:25:41;9.13;;;6.82;;
44120;SDS011;29783;52.504;13.478;2023-08-20T09:28:08;9.20;;;6.38;;
44120;SDS011;29783;52.504;13.478;2023-08-20T09:30:33;11.50;;;6.47;;
44120;SDS011;29783;52.504;13.478;2023-08-20T09:33:03;9.60;;;6.22;;
44120;SDS011;29783;52.504;13.478;2023-08-20T09:35:29;7.32;;;5.80;;
44120;SDS011;29783;52.504;13.478;2023-08-20T09:37:59;10.85;;;6.40;;
44120;SDS011;29783;52.504;13.478;2023-08-20T09:40:26;11.38;;;6.60;;
44120;SDS011;29783;52.504;13.478;2023-08-20T09:42:53;8.13;;;6.53;;
44120;SDS011;29783;52.504;13.478;2023-08-20T09:45:21;8.32;;;6.18;;
44120;SDS011;29783;52.504;13.478;2023-08-20T09:47:48;10.98;;;6.30;;
44120;SDS011;29783;52.504;13.478;2023-08-20T09:50:17;9.07;;;6.30;;
44120;SDS011;29783;52.504;13.478;2023-08-20T09:53:01;8.65;;;6.05;;
44120;SDS011;29783;52.504;13.478;2023-08-20T09:55:34;8.93;;;5.68;;
44120;SDS011;29783;52.504;13.478;2023-08-20T09:58:05;9.13;;;5.97;;
44120;SDS011;29783;52.504;13.478;2023-08-20T10:00:32;14.00;;;5.63;;
44120;SDS011;29783;52.504;13.478;2023-08-20T10:02:58;7.93;;;5.60;;
44120;SDS011;29783;52.504;13.478;2023-08-20T10:05:25;9.35;;;5.18;;
44120;SDS011;29783;52.504;13.478;2023-08-20T10:07:52;7.45;;;5.18;;
44120;SDS011;29783;52.504;13.478;2023-08-20T10:10:20;7.72;;;5.32;;
44120;SDS011;29783;52.504;13.478;2023-08-20T10:12:46;7.20;;;4.82;;
44120;SDS011;29783;52.504;13.478;2023-08-20T10:15:13;5.13;;;4.18;;
44120;SDS011;29783;52.504;13.478;2023-08-20T10:17:44;5.53;;;3.95;;
44120;SDS011;29783;52.504;13.478;2023-08-20T10:20:12;6.07;;;4.18;;
44120;SDS011;29783;52.504;13.478;2023-08-20T10:22:42;5.65;;;4.30;;
44120;SDS011;29783;52.504;13.478;2023-08-20T10:25:21;6.25;;;4.68;;
44120;SDS011;29783;52.504;13.478;2023-08-20T10:27:48;6.13;;;4.18;;
44120;SDS011;29783;52.504;13.478;2023-08-20T10:30:17;5.97;;;3.95;;
44120;SDS011;29783;52.504;13.478;2023-08-20T10:32:53;4.53;;;3.42;;
44120;SDS011;29783;52.504;13.478;2023-08-20T10:35:25;5.35;;;3.40;;
44120;SDS011;29783;52.504;13.478;2023-08-20T10:38:06;5.47;;;3.13;;
44120;SDS011;29783;52.504;13.478;2023-08-20T10:48:35;9.68;;;2.90;;
44120;SDS011;29783;52.504;13.478;2023-08-20T10:51:07;4.75;;;3.03;;
44120;SDS011;29783;52.504;13.478;2023-08-20T10:53:36;4.75;;;2.63;;
44120;SDS011;29783;52.504;13.478;2023-08-20T10:56:12;4.15;;;2.72;;
44120;SDS011;29783;52.504;13.478;2023-08-20T10:58:43;3.53;;;2.45;;
44120;SDS011;29783;52.504;13.478;2023-08-20T11:03:46;2.60;;;1.85;;
44120;SDS011;29783;52.504;13.478;2023-08-20T11:06:16;3.92;;;2.20;;
44120;SDS011;29783;52.504;13.478;2023-08-20T11:08:43;2.95;;;1.92;;
44120;SDS011;29783;52.504;13.478;2023-08-20T11:11:09;3.95;;;2.30;;
44120;SDS011;29783;52.504;13.478;2023-08-20T11:13:36;3.83;;;1.90;;
44120;SDS011;29783;52.504;13.478;2023-08-20T11:16:02;5.78;;;2.10;;
44120;SDS011;29783;52.504;13.478;2023-08-20T11:18:29;3.83;;;2.20;;
44120;SDS011;29783;52.504;13.478;2023-08-20T11:20:59;3.70;;;1.95;;
44120;SDS011;29783;52.504;13.478;2023-08-20T11:23:25;6.07;;;2.10;;
44120;SDS011;29783;52.504;13.478;2023-08-20T11:25:52;3.30;;;2.30;;
44120;SDS011;29783;52.504;13.478;2023-08-20T11:28:17;2.78;;;1.77;;
44120;SDS011;29783;52.504;13.478;2023-08-20T11:30:43;4.43;;;1.80;;
44120;SDS011;29783;52.504;13.478;2023-08-20T11:33:11;3.25;;;1.80;;
44120;SDS011;29783;52.504;13.478;2023-08-20T11:35:37;1.70;;;1.55;;
44120;SDS011;29783;52.504;13.478;2023-08-20T11:38:03;4.00;;;1.58;;
44120;SDS011;29783;52.504;13.478;2023-08-20T11:40:29;5.05;;;1.98;;
44120;SDS011;29783;52.504;13.478;2023-08-20T11:42:55;3.90;;;1.73;;
44120;SDS011;29783;52.504;13.478;2023-08-20T11:45:21;2.03;;;1.65;;
44120;SDS011;29783;52.504;13.478;2023-08-20T11:47:46;2.97;;;1.77;;
44120;SDS011;29783;52.504;13.478;2023-08-20T11:50:12;4.20;;;1.75;;
44120;SDS011;29783;52.504;13.478;2023-08-20T11:52:38;5.72;;;2.00;;
44120;SDS011;29783;52.504;13.478;2023-08-20T11:55:07;3.10;;;1.77;;
44120;SDS011;29783;52.504;13.478;2023-08-20T11:57:34;2.28;;;1.45;;
44120;SDS011;29783;52.504;13.478;2023-08-20T12:00:03;2.67;;;1.60;;
44120;SDS011;29783;52.504;13.478;2023-08-20T12:02:30;2.75;;;1.60;;
44120;SDS011;29783;52.504;13.478;2023-08-20T12:04:56;8.93;;;1.65;;
44120;SDS011;29783;52.504;13.478;2023-08-20T12:07:26;7.15;;;1.67;;
44120;SDS011;29783;52.504;13.478;2023-08-20T12:09:53;2.05;;;1.42;;
44120;SDS011;29783;52.504;13.478;2023-08-20T12:12:19;3.20;;;1.70;;
44120;SDS011;29783;52.504;13.478;2023-08-20T12:14:46;4.03;;;1.52;;
44120;SDS011;29783;52.504;13.478;2023-08-20T12:17:12;7.10;;;1.75;;
44120;SDS011;29783;52.504;13.478;2023-08-20T12:19:41;3.90;;;1.50;;
44120;SDS011;29783;52.504;13.478;2023-08-20T12:22:08;3.53;;;1.63;;
44120;SDS011;29783;52.504;13.478;2023-08-20T12:24:34;2.80;;;1.33;;
44120;SDS011;29783;52.504;13.478;2023-08-20T12:26:59;5.65;;;1.75;;
44120;SDS011;29783;52.504;13.478;2023-08-20T12:29:25;6.10;;;1.42;;
44120;SDS011;29783;52.504;13.478;2023-08-20T12:31:51;3.25;;;1.20;;
44120;SDS011;29783;52.504;13.478;2023-08-20T12:34:16;4.68;;;1.40;;
44120;SDS011;29783;52.504;13.478;2023-08-20T12:36:42;2.45;;;1.23;;
44120;SDS011;29783;52.504;13.478;2023-08-20T12:39:08;4.25;;;1.70;;
44120;SDS011;29783;52.504;13.478;2023-08-20T12:41:33;3.20;;;1.48;;
44120;SDS011;29783;52.504;13.478;2023-08-20T12:44:01;3.05;;;1.48;;
44120;SDS011;29783;52.504;13.478;2023-08-20T12:46:27;3.13;;;1.20;;
44120;SDS011;29783;52.504;13.478;2023-08-20T12:48:52;3.92;;;1.38;;
44120;SDS011;29783;52.504;13.478;2023-08-20T12:51:18;5.88;;;1.40;;
44120;SDS011;29783;52.504;13.478;2023-08-20T12:53:44;4.10;;;1.20;;
44120;SDS011;29783;52.504;13.478;2023-08-20T12:56:10;1.65;;;1.00;;
44120;SDS011;29783;52.504;13.478;2023-08-20T12:58:36;2.88;;;1.30;;
44120;SDS011;29783;52.504;13.478;2023-08-20T13:01:02;4.05;;;1.40;;
44120;SDS011;29783;52.504;13.478;2023-08-20T13:03:28;1.88;;;1.23;;
44120;SDS011;29783;52.504;13.478;2023-08-20T13:05:54;4.45;;;1.30;;
44120;SDS011;29783;52.504;13.478;2023-08-20T13:08:22;1.92;;;1.00;;
44120;SDS011;29783;52.504;13.478;2023-08-20T13:10:50;1.42;;;0.90;;
44120;SDS011;29783;52.504;13.478;2023-08-20T13:13:20;2.83;;;1.30;;
44120;SDS011;29783;52.504;13.478;2023-08-20T13:15:48;1.95;;;1.10;;
44120;SDS011;29783;52.504;13.478;2023-08-20T13:18:17;2.28;;;1.10;;
44120;SDS011;29783;52.504;13.478;2023-08-20T13:20:43;3.95;;;1.13;;
44120;SDS011;29783;52.504;13.478;2023-08-20T13:23:08;2.83;;;1.35;;
44120;SDS011;29783;52.504;13.478;2023-08-20T13:25:34;2.90;;;1.30;;
44120;SDS011;29783;52.504;13.478;2023-08-20T13:28:00;3.22;;;1.20;;
44120;SDS011;29783;52.504;13.478;2023-08-20T13:30:25;2.58;;;1.20;;
44120;SDS011;29783;52.504;13.478;2023-08-20T13:32:51;2.15;;;1.00;;
44120;SDS011;29783;52.504;13.478;2023-08-20T13:35:17;4.22;;;1.10;;
44120;SDS011;29783;52.504;13.478;2023-08-20T13:37:43;2.05;;;0.98;;
44120;SDS011;29783;52.504;13.478;2023-08-20T13:40:09;3.50;;;1.35;;
44120;SDS011;29783;52.504;13.478;2023-08-20T13:42:35;6.38;;;1.30;;
44120;SDS011;29783;52.504;13.478;2023-08-20T13:45:01;1.45;;;1.15;;
44120;SDS011;29783;52.504;13.478;2023-08-20T13:47:27;3.03;;;1.02;;
44120;SDS011;29783;52.504;13.478;2023-08-20T13:49:53;1.73;;;0.98;;
44120;SDS011;29783;52.504;13.478;2023-08-20T13:52:18;2.30;;;1.02;;
44120;SDS011;29783;52.504;13.478;2023-08-20T13:54:45;1.95;;;0.90;;
44120;SDS011;29783;52.504;13.478;2023-08-20T13:57:11;8.02;;;1.20;;
44120;SDS011;29783;52.504;13.478;2023-08-20T13:59:36;6.65;;;1.02;;
44120;SDS011;29783;52.504;13.478;2023-08-20T14:02:02;4.57;;;1.10;;
44120;SDS011;29783;52.504;13.478;2023-08-20T14:04:29;4.00;;;1.13;;
44120;SDS011;29783;52.504;13.478;2023-08-20T14:06:55;2.63;;;1.08;;
44120;SDS011;29783;52.504;13.478;2023-08-20T14:09:20;3.13;;;1.10;;
44120;SDS011;29783;52.504;13.478;2023-08-20T14:11:46;3.30;;;1.00;;
44120;SDS011;29783;52.504;13.478;2023-08-20T14:14:12;2.28;;;1.15;;
44120;SDS011;29783;52.504;13.478;2023-08-20T14:16:37;2.85;;;1.05;;
44120;SDS011;29783;52.504;13.478;2023-08-20T14:19:03;2.47;;;1.00;;
44120;SDS011;29783;52.504;13.478;2023-08-20T14:21:29;3.92;;;1.15;;
44120;SDS011;29783;52.504;13.478;2023-08-20T14:23:54;3.15;;;1.27;;
44120;SDS011;29783;52.504;13.478;2023-08-20T14:26:20;5.90;;;1.27;;
44120;SDS011;29783;52.504;13.478;2023-08-20T14:28:45;10.27;;;1.20;;
44120;SDS011;29783;52.504;13.478;2023-08-20T14:31:11;2.05;;;0.82;;
44120;SDS011;29783;52.504;13.478;2023-08-20T14:33:37;2.95;;;1.27;;